AirNav   ProFlight Series 2 Aviation Headset
 
 296 users online  

8PA5 Echo 8 Communications Facility Heliport
Kittanning, Pennsylvania, USA

GOING TO KITTANNING?


FAA INFORMATION EFFECTIVE 18 JUNE 2020

Location

FAA Identifier: 8PA5
Lat/Long: 40-48-52.2300N 079-30-22.1600W
40-48.870500N 079-30.369333W
40.8145083,-79.5061556
(estimated)
Elevation: 1304 ft. / 397 m (estimated)
Variation: 09W (1990)
Time zone: UTC -4 (UTC -5 during Standard Time)
Zip code: 16201

Heliport Operations

Heliport use: Private use. Permission required prior to landing
Activation date: 10/1991
Control tower: no
ARTCC: CLEVELAND CENTER
FSS: ALTOONA FLIGHT SERVICE STATION
Attendance: CONTINUOUS
Segmented circle: no

Nearby radio navigation aids

VOR radial/distance  VOR name  Freq  Var
CIPr192/20.0CLARION VOR/DME112.9006W
EWCr099/32.0ELLWOOD CITY VOR/DME115.8008W
RECr304/38.1REVLOC VOR/DME110.6009W

Heliport Services

Runway Information

Helipad H1

Dimensions: 34 x 34 ft. / 10 x 10 m
Surface: concrete
Traffic pattern: leftleft

Heliport Ownership and Management from official FAA records

Ownership: Privately-owned
Owner: CROWN COMMUNICATIONS
PENN CENTER WEST III, BLDG 3
PITTSBURGH, PA 15276
Phone 412-788-0906
SUITE 229.
Manager: ROBERT CROWN
PENN CENTER WEST III, BLDG 3
PITTSBURGH, PA 15276
Phone 412-788-0906
SUITE 229.

Heliport Operational Statistics

Aircraft based on the field: 1
Helicopters: 1
    

Additional Remarks

FOR CD CTC CLEVELAND ARTCC AT 440-774-0234.

Instrument Procedures

There are no published instrument procedures at 8PA5.

Some nearby airports with instrument procedures:

6P7 - McVille Airport (6 nm SW)
KBTP - Pittsburgh/Butler Regional Airport (20 nm W)
KIDI - Indiana County Airport (Jimmy Stewart Field) (21 nm SE)
KAXQ - Clarion County Airport (25 nm N)
N35 - Punxsutawney Municipal Airport (28 nm E)
 
Loc | Ops | Rwys | IFR | FBO | Links
Com | Nav | Svcs | Stats | Notes
Area around 8PA5 (Echo 8 Communications Facility Heliport)
 
Road maps at: MapQuest Bing Google
 
Aerial photo
No photo
 
Sectional chart

 
Airport distance calculator
Flying to Echo 8 Communications Facility Heliport? Find the distance to fly.

From to 8PA5

Sunrise and sunset
Times for 15-Jul-2020
 Local
(UTC-4)
 Zulu
(UTC)
Morning civil twilight05:2909:29
Sunrise06:0110:01
Sunset20:4700:47
Evening civil twilight21:1901:19

Current date and time
Zulu (UTC)  15-Jul-2020 09:12:00
Local (UTC-4)  15-Jul-2020 05:12:00
 
METAR
KBTP 
20nm W 
150856Z AUTO 02004KT 10SM CLR 14/14 A3016 RMK AO2 SLP212 T01440139 53003
KIDI 
23nm SE 
150855Z AUTO 00000KT 10SM FEW042 14/14 A3020 RMK A01
KLBE 
33nm S 
150855Z AUTO 00000KT 10SM CLR 15/15 A3015 RMK AO2
KAGC 
34nm SW 
150853Z 15003KT 10SM CLR 18/16 A3013 RMK AO2 SLP200 T01780156 55000
KDUJ 
35nm NE 
150853Z AUTO 11003KT 10SM CLR 14/13 A3017 RMK AO2 SLP206 T01390128 53003
KFKL 
37nm NW 
150856Z AUTO 00000KT 10SM SCT001 13/13 A3017 RMK AO2 SLP212 T01330128 53003
KP53 
39nm S 
150856Z AUTO 00000KT 18/17 A2994 RMK AO1 SLP137 P0001 60003 T01830172 51006
KPIT 
39nm SW 
150851Z 00000KT 10SM FEW250 17/14 A3014 RMK AO2 SLP205 T01670144 53001
KBVI 
41nm W 
150855Z AUTO 11003KT 10SM CLR 19/14 A3015 RMK AO2 T01850140
TAF
KLBE 
33nm S 
150521Z 1506/1606 00000KT P6SM BKN250 FM151500 18004KT P6SM SCT250
KAGC 
34nm SW 
150521Z 1506/1606 00000KT P6SM BKN250 FM151400 15004KT P6SM SCT250
KDUJ 
35nm NE 
150521Z 1506/1606 00000KT P6SM BKN250 FM151400 14005KT P6SM SCT250
KFKL 
37nm NW 
150722Z 1507/1606 00000KT P6SM BKN250 TEMPO 1507/1511 1SM BR VV002 FM151500 16005KT P6SM SCT250
KPIT 
39nm SW 
150521Z 1506/1612 00000KT P6SM BKN250 FM151400 16004KT P6SM SCT250
KBVI 
41nm W 
150521Z 1506/1606 00000KT P6SM BKN250 FM151400 14004KT P6SM SCT250
NOTAMs
Click for the latest NOTAMs
NOTAMs are issued by the DoD/FAA and will open in a separate window not controlled by AirNav.

 

 
 

Would you like to see your business listed on this page?

 If your business provides an interesting product or service to pilots, flight crews, aircraft, or users of the Echo 8 Communications Facility Heliport, you should consider listing it here.  To start the listing process, click on the button below
 
Add a business
 

Other Pages about Echo 8 Communications Facility Heliport

Update a link
 
Copyright © AirNav, LLC. All rights reserved. Privacy Policy  Contact